sensor_id;sensor_type;location;lat;lon;timestamp;temperature;humidity
17154;DHT22;8692;52.164;7.558;2023-12-22T00:00:46;6.30;99.90
17154;DHT22;8692;52.164;7.558;2023-12-22T00:03:15;6.40;99.90
17154;DHT22;8692;52.164;7.558;2023-12-22T00:05:45;6.40;99.90
17154;DHT22;8692;52.164;7.558;2023-12-22T00:08:12;6.40;99.90
17154;DHT22;8692;52.164;7.558;2023-12-22T00:10:40;6.40;99.90
17154;DHT22;8692;52.164;7.558;2023-12-22T00:13:08;6.30;99.90
17154;DHT22;8692;52.164;7.558;2023-12-22T00:15:36;6.30;99.90
17154;DHT22;8692;52.164;7.558;2023-12-22T00:18:04;6.30;99.90
17154;DHT22;8692;52.164;7.558;2023-12-22T00:20:33;6.30;99.90
17154;DHT22;8692;52.164;7.558;2023-12-22T00:23:02;6.20;99.90
17154;DHT22;8692;52.164;7.558;2023-12-22T00:25:30;6.20;99.90
17154;DHT22;8692;52.164;7.558;2023-12-22T00:27:58;6.30;99.90
17154;DHT22;8692;52.164;7.558;2023-12-22T00:30:26;6.30;99.90
17154;DHT22;8692;52.164;7.558;2023-12-22T00:32:54;6.30;99.90
17154;DHT22;8692;52.164;7.558;2023-12-22T00:35:22;6.20;99.90
17154;DHT22;8692;52.164;7.558;2023-12-22T00:37:51;6.30;99.90
17154;DHT22;8692;52.164;7.558;2023-12-22T00:40:21;6.30;99.90
17154;DHT22;8692;52.164;7.558;2023-12-22T00:42:49;6.30;99.90
17154;DHT22;8692;52.164;7.558;2023-12-22T00:45:17;6.30;99.90
17154;DHT22;8692;52.164;7.558;2023-12-22T00:47:45;6.30;99.90
17154;DHT22;8692;52.164;7.558;2023-12-22T00:50:13;6.20;99.90
17154;DHT22;8692;52.164;7.558;2023-12-22T00:52:41;6.20;99.90
17154;DHT22;8692;52.164;7.558;2023-12-22T00:55:09;6.20;99.90
17154;DHT22;8692;52.164;7.558;2023-12-22T00:57:39;6.20;99.90
17154;DHT22;8692;52.164;7.558;2023-12-22T01:00:08;6.20;99.90
17154;DHT22;8692;52.164;7.558;2023-12-22T01:02:39;6.20;99.90
17154;DHT22;8692;52.164;7.558;2023-12-22T01:05:07;6.20;99.90
17154;DHT22;8692;52.164;7.558;2023-12-22T01:07:35;6.20;99.90
17154;DHT22;8692;52.164;7.558;2023-12-22T01:10:04;6.20;99.90
17154;DHT22;8692;52.164;7.558;2023-12-22T01:12:32;6.20;99.90
17154;DHT22;8692;52.164;7.558;2023-12-22T01:15:01;6.20;99.90
17154;DHT22;8692;52.164;7.558;2023-12-22T01:17:29;6.20;99.90
17154;DHT22;8692;52.164;7.558;2023-12-22T01:19:57;6.20;99.90
17154;DHT22;8692;52.164;7.558;2023-12-22T01:22:25;6.10;99.90
17154;DHT22;8692;52.164;7.558;2023-12-22T01:24:53;6.10;99.90
17154;DHT22;8692;52.164;7.558;2023-12-22T01:27:21;6.10;99.90
17154;DHT22;8692;52.164;7.558;2023-12-22T01:29:49;6.10;99.90
17154;DHT22;8692;52.164;7.558;2023-12-22T01:32:19;6.20;99.90
17154;DHT22;8692;52.164;7.558;2023-12-22T01:34:47;6.20;99.90
17154;DHT22;8692;52.164;7.558;2023-12-22T01:37:15;6.20;99.90
17154;DHT22;8692;52.164;7.558;2023-12-22T01:39:43;6.20;99.90
17154;DHT22;8692;52.164;7.558;2023-12-22T01:42:11;6.20;99.90
17154;DHT22;8692;52.164;7.558;2023-12-22T01:44:39;6.20;99.90
17154;DHT22;8692;52.164;7.558;2023-12-22T01:47:06;6.20;99.90
17154;DHT22;8692;52.164;7.558;2023-12-22T01:49:36;6.20;99.90
17154;DHT22;8692;52.164;7.558;2023-12-22T01:52:04;6.20;99.90
17154;DHT22;8692;52.164;7.558;2023-12-22T01:54:32;6.20;99.90
17154;DHT22;8692;52.164;7.558;2023-12-22T01:57:01;6.20;99.90
17154;DHT22;8692;52.164;7.558;2023-12-22T01:59:30;6.20;99.90
17154;DHT22;8692;52.164;7.558;2023-12-22T02:02:01;6.30;99.90
17154;DHT22;8692;52.164;7.558;2023-12-22T02:04:30;6.30;99.90
17154;DHT22;8692;52.164;7.558;2023-12-22T02:07:01;6.30;99.90
17154;DHT22;8692;52.164;7.558;2023-12-22T02:09:30;6.30;99.90
17154;DHT22;8692;52.164;7.558;2023-12-22T02:11:58;6.20;99.90
17154;DHT22;8692;52.164;7.558;2023-12-22T02:14:26;6.20;99.90
17154;DHT22;8692;52.164;7.558;2023-12-22T02:17:02;6.20;99.90
17154;DHT22;8692;52.164;7.558;2023-12-22T02:19:41;6.20;99.90
17154;DHT22;8692;52.164;7.558;2023-12-22T02:22:12;6.20;99.90
17154;DHT22;8692;52.164;7.558;2023-12-22T02:24:42;6.20;99.90
17154;DHT22;8692;52.164;7.558;2023-12-22T02:27:17;6.30;99.90
17154;DHT22;8692;52.164;7.558;2023-12-22T02:29:51;6.30;99.90
17154;DHT22;8692;52.164;7.558;2023-12-22T02:32:22;6.30;99.90
17154;DHT22;8692;52.164;7.558;2023-12-22T02:34:53;6.30;99.90
17154;DHT22;8692;52.164;7.558;2023-12-22T02:37:23;6.30;99.90
17154;DHT22;8692;52.164;7.558;2023-12-22T02:39:53;6.30;99.90
17154;DHT22;8692;52.164;7.558;2023-12-22T02:42:21;6.30;99.90
17154;DHT22;8692;52.164;7.558;2023-12-22T02:44:57;6.30;99.90
17154;DHT22;8692;52.164;7.558;2023-12-22T02:47:25;6.30;99.90
17154;DHT22;8692;52.164;7.558;2023-12-22T02:49:55;6.30;99.90
17154;DHT22;8692;52.164;7.558;2023-12-22T02:52:23;6.40;99.90
17154;DHT22;8692;52.164;7.558;2023-12-22T02:54:52;6.40;99.90
17154;DHT22;8692;52.164;7.558;2023-12-22T02:57:20;6.40;99.90
17154;DHT22;8692;52.164;7.558;2023-12-22T02:59:48;6.40;99.90
17154;DHT22;8692;52.164;7.558;2023-12-22T03:02:16;6.40;99.90
17154;DHT22;8692;52.164;7.558;2023-12-22T03:04:44;6.40;99.90
17154;DHT22;8692;52.164;7.558;2023-12-22T03:07:13;6.40;99.90
17154;DHT22;8692;52.164;7.558;2023-12-22T03:09:41;6.30;99.90
17154;DHT22;8692;52.164;7.558;2023-12-22T03:12:11;6.40;99.90
17154;DHT22;8692;52.164;7.558;2023-12-22T03:14:39;6.40;99.90
17154;DHT22;8692;52.164;7.558;2023-12-22T03:17:07;6.40;99.90
17154;DHT22;8692;52.164;7.558;2023-12-22T03:19:36;6.40;99.90
17154;DHT22;8692;52.164;7.558;2023-12-22T03:22:04;6.40;99.90
17154;DHT22;8692;52.164;7.558;2023-12-22T03:24:32;6.40;99.90
17154;DHT22;8692;52.164;7.558;2023-12-22T03:27:00;6.30;99.90
17154;DHT22;8692;52.164;7.558;2023-12-22T03:29:29;6.30;99.90
17154;DHT22;8692;52.164;7.558;2023-12-22T03:31:57;6.30;99.90
17154;DHT22;8692;52.164;7.558;2023-12-22T03:34:26;6.30;99.90
17154;DHT22;8692;52.164;7.558;2023-12-22T03:36:54;6.30;99.90
17154;DHT22;8692;52.164;7.558;2023-12-22T03:39:22;6.20;99.90
17154;DHT22;8692;52.164;7.558;2023-12-22T03:41:50;6.20;99.90
17154;DHT22;8692;52.164;7.558;2023-12-22T03:44:18;6.20;99.90
17154;DHT22;8692;52.164;7.558;2023-12-22T03:46:50;6.10;99.90
17154;DHT22;8692;52.164;7.558;2023-12-22T03:49:18;6.10;99.90
17154;DHT22;8692;52.164;7.558;2023-12-22T03:51:47;6.10;99.90
17154;DHT22;8692;52.164;7.558;2023-12-22T03:54:15;6.00;99.90
17154;DHT22;8692;52.164;7.558;2023-12-22T03:56:44;6.00;99.90
17154;DHT22;8692;52.164;7.558;2023-12-22T03:59:12;6.00;99.90
17154;DHT22;8692;52.164;7.558;2023-12-22T04:01:40;5.90;99.90
17154;DHT22;8692;52.164;7.558;2023-12-22T04:04:10;5.90;99.90
17154;DHT22;8692;52.164;7.558;2023-12-22T04:06:38;5.90;99.90
17154;DHT22;8692;52.164;7.558;2023-12-22T04:09:06;5.90;99.90
17154;DHT22;8692;52.164;7.558;2023-12-22T04:11:34;5.80;99.90
17154;DHT22;8692;52.164;7.558;2023-12-22T04:14:06;5.80;99.90
17154;DHT22;8692;52.164;7.558;2023-12-22T04:16:36;5.70;99.90
17154;DHT22;8692;52.164;7.558;2023-12-22T04:19:04;5.60;99.90
17154;DHT22;8692;52.164;7.558;2023-12-22T04:21:38;5.50;99.90
17154;DHT22;8692;52.164;7.558;2023-12-22T04:24:07;5.50;99.90
17154;DHT22;8692;52.164;7.558;2023-12-22T04:26:35;5.40;99.90
17154;DHT22;8692;52.164;7.558;2023-12-22T04:29:03;5.30;99.90
17154;DHT22;8692;52.164;7.558;2023-12-22T04:31:31;5.30;99.90
17154;DHT22;8692;52.164;7.558;2023-12-22T04:33:59;5.20;99.90
17154;DHT22;8692;52.164;7.558;2023-12-22T04:36:27;5.20;99.90
17154;DHT22;8692;52.164;7.558;2023-12-22T04:38:57;5.20;99.90
17154;DHT22;8692;52.164;7.558;2023-12-22T04:41:25;5.20;99.90
17154;DHT22;8692;52.164;7.558;2023-12-22T04:43:52;5.20;99.90
17154;DHT22;8692;52.164;7.558;2023-12-22T04:46:20;5.10;99.90
17154;DHT22;8692;52.164;7.558;2023-12-22T04:48:48;5.10;99.90
17154;DHT22;8692;52.164;7.558;2023-12-22T04:51:17;5.10;99.90
17154;DHT22;8692;52.164;7.558;2023-12-22T04:53:45;5.10;99.90
17154;DHT22;8692;52.164;7.558;2023-12-22T04:56:14;5.00;99.90
17154;DHT22;8692;52.164;7.558;2023-12-22T04:58:42;5.00;99.90
17154;DHT22;8692;52.164;7.558;2023-12-22T05:01:10;5.00;99.90
17154;DHT22;8692;52.164;7.558;2023-12-22T05:03:38;5.00;99.90
17154;DHT22;8692;52.164;7.558;2023-12-22T05:06:06;5.00;99.90
17154;DHT22;8692;52.164;7.558;2023-12-22T05:08:34;5.00;99.90
17154;DHT22;8692;52.164;7.558;2023-12-22T05:11:02;5.00;99.90
17154;DHT22;8692;52.164;7.558;2023-12-22T05:13:32;5.00;99.90
17154;DHT22;8692;52.164;7.558;2023-12-22T05:16:00;5.00;99.90
17154;DHT22;8692;52.164;7.558;2023-12-22T05:18:28;5.00;99.90
17154;DHT22;8692;52.164;7.558;2023-12-22T05:20:56;5.10;99.90
17154;DHT22;8692;52.164;7.558;2023-12-22T05:23:24;5.10;99.90
17154;DHT22;8692;52.164;7.558;2023-12-22T05:25:52;5.10;99.90
17154;DHT22;8692;52.164;7.558;2023-12-22T05:28:20;5.10;99.90
17154;DHT22;8692;52.164;7.558;2023-12-22T05:30:49;5.10;99.90
17154;DHT22;8692;52.164;7.558;2023-12-22T05:33:17;5.10;99.90
17154;DHT22;8692;52.164;7.558;2023-12-22T05:35:46;5.20;99.90
17154;DHT22;8692;52.164;7.558;2023-12-22T05:38:13;5.20;99.90
17154;DHT22;8692;52.164;7.558;2023-12-22T05:40:42;5.30;99.90
17154;DHT22;8692;52.164;7.558;2023-12-22T05:43:10;5.30;99.90
17154;DHT22;8692;52.164;7.558;2023-12-22T05:45:38;5.30;99.90
17154;DHT22;8692;52.164;7.558;2023-12-22T05:48:08;5.40;99.90
17154;DHT22;8692;52.164;7.558;2023-12-22T05:50:36;5.40;99.90
17154;DHT22;8692;52.164;7.558;2023-12-22T05:53:04;5.40;99.90
17154;DHT22;8692;52.164;7.558;2023-12-22T05:55:32;5.40;99.90
17154;DHT22;8692;52.164;7.558;2023-12-22T05:58:00;5.40;99.90
17154;DHT22;8692;52.164;7.558;2023-12-22T06:00:28;5.40;99.90
17154;DHT22;8692;52.164;7.558;2023-12-22T06:02:56;5.50;99.90
17154;DHT22;8692;52.164;7.558;2023-12-22T06:05:25;5.50;99.90
17154;DHT22;8692;52.164;7.558;2023-12-22T06:07:53;5.50;99.90
17154;DHT22;8692;52.164;7.558;2023-12-22T06:10:21;5.50;99.90
17154;DHT22;8692;52.164;7.558;2023-12-22T06:12:49;5.60;99.90
17154;DHT22;8692;52.164;7.558;2023-12-22T06:15:17;5.60;99.90
17154;DHT22;8692;52.164;7.558;2023-12-22T06:17:45;5.60;99.90
17154;DHT22;8692;52.164;7.558;2023-12-22T06:20:13;5.60;99.90
17154;DHT22;8692;52.164;7.558;2023-12-22T06:22:43;5.60;99.90
17154;DHT22;8692;52.164;7.558;2023-12-22T06:25:11;5.60;99.90
17154;DHT22;8692;52.164;7.558;2023-12-22T06:27:39;5.60;99.90
17154;DHT22;8692;52.164;7.558;2023-12-22T06:30:08;5.60;99.90
17154;DHT22;8692;52.164;7.558;2023-12-22T06:32:35;5.60;99.90
17154;DHT22;8692;52.164;7.558;2023-12-22T06:35:07;5.60;99.90
17154;DHT22;8692;52.164;7.558;2023-12-22T06:37:43;5.60;99.90
17154;DHT22;8692;52.164;7.558;2023-12-22T06:40:11;5.60;99.90
17154;DHT22;8692;52.164;7.558;2023-12-22T06:42:39;5.60;99.90
17154;DHT22;8692;52.164;7.558;2023-12-22T06:45:08;5.60;99.90
17154;DHT22;8692;52.164;7.558;2023-12-22T06:47:37;5.60;99.90
17154;DHT22;8692;52.164;7.558;2023-12-22T06:50:06;5.60;99.90
17154;DHT22;8692;52.164;7.558;2023-12-22T06:52:34;5.70;99.90
17154;DHT22;8692;52.164;7.558;2023-12-22T06:55:04;5.60;99.90
17154;DHT22;8692;52.164;7.558;2023-12-22T06:57:32;5.60;99.90
17154;DHT22;8692;52.164;7.558;2023-12-22T07:00:02;5.60;99.90
17154;DHT22;8692;52.164;7.558;2023-12-22T07:02:31;5.70;99.90
17154;DHT22;8692;52.164;7.558;2023-12-22T07:05:02;5.70;99.90
17154;DHT22;8692;52.164;7.558;2023-12-22T07:07:37;5.70;99.90
17154;DHT22;8692;52.164;7.558;2023-12-22T07:10:07;5.70;99.90
17154;DHT22;8692;52.164;7.558;2023-12-22T07:12:35;5.70;99.90
17154;DHT22;8692;52.164;7.558;2023-12-22T07:15:03;5.70;99.90
17154;DHT22;8692;52.164;7.558;2023-12-22T07:17:33;5.70;99.90
17154;DHT22;8692;52.164;7.558;2023-12-22T07:20:03;5.80;99.90
17154;DHT22;8692;52.164;7.558;2023-12-22T07:22:31;5.80;99.90
17154;DHT22;8692;52.164;7.558;2023-12-22T07:24:59;5.80;99.90
17154;DHT22;8692;52.164;7.558;2023-12-22T07:27:28;5.90;99.90
17154;DHT22;8692;52.164;7.558;2023-12-22T07:29:56;5.90;99.90
17154;DHT22;8692;52.164;7.558;2023-12-22T07:32:25;5.90;99.90
17154;DHT22;8692;52.164;7.558;2023-12-22T07:34:54;5.90;99.90
17154;DHT22;8692;52.164;7.558;2023-12-22T07:37:22;5.90;99.90
17154;DHT22;8692;52.164;7.558;2023-12-22T07:39:50;5.90;99.90
17154;DHT22;8692;52.164;7.558;2023-12-22T07:42:18;5.90;99.90
17154;DHT22;8692;52.164;7.558;2023-12-22T07:44:47;6.00;99.90
17154;DHT22;8692;52.164;7.558;2023-12-22T07:47:15;5.90;99.90
17154;DHT22;8692;52.164;7.558;2023-12-22T07:49:43;6.00;99.90
17154;DHT22;8692;52.164;7.558;2023-12-22T07:52:13;6.00;99.90
17154;DHT22;8692;52.164;7.558;2023-12-22T07:54:42;6.00;99.90
17154;DHT22;8692;52.164;7.558;2023-12-22T07:57:10;6.00;99.90
17154;DHT22;8692;52.164;7.558;2023-12-22T07:59:37;6.10;99.90
17154;DHT22;8692;52.164;7.558;2023-12-22T08:02:07;6.00;99.90
17154;DHT22;8692;52.164;7.558;2023-12-22T08:04:35;6.00;99.90
17154;DHT22;8692;52.164;7.558;2023-12-22T08:07:03;6.00;99.90
17154;DHT22;8692;52.164;7.558;2023-12-22T08:09:31;6.10;99.90
17154;DHT22;8692;52.164;7.558;2023-12-22T08:11:59;6.10;99.90
17154;DHT22;8692;52.164;7.558;2023-12-22T08:14:28;6.10;99.90
17154;DHT22;8692;52.164;7.558;2023-12-22T08:16:56;6.10;99.90
17154;DHT22;8692;52.164;7.558;2023-12-22T08:19:26;6.00;99.90
17154;DHT22;8692;52.164;7.558;2023-12-22T08:21:57;6.00;99.90
17154;DHT22;8692;52.164;7.558;2023-12-22T08:24:29;6.00;99.90
17154;DHT22;8692;52.164;7.558;2023-12-22T08:26:57;6.00;99.90
17154;DHT22;8692;52.164;7.558;2023-12-22T08:29:25;5.90;99.90
17154;DHT22;8692;52.164;7.558;2023-12-22T08:31:53;5.90;99.90
17154;DHT22;8692;52.164;7.558;2023-12-22T08:34:21;5.90;99.90
17154;DHT22;8692;52.164;7.558;2023-12-22T08:36:50;5.90;99.90
17154;DHT22;8692;52.164;7.558;2023-12-22T08:39:19;5.90;99.90
17154;DHT22;8692;52.164;7.558;2023-12-22T08:41:47;5.90;99.90
17154;DHT22;8692;52.164;7.558;2023-12-22T08:44:15;5.80;99.90
17154;DHT22;8692;52.164;7.558;2023-12-22T08:46:43;5.90;99.90
17154;DHT22;8692;52.164;7.558;2023-12-22T08:49:11;5.90;99.90
17154;DHT22;8692;52.164;7.558;2023-12-22T08:51:40;5.90;99.90
17154;DHT22;8692;52.164;7.558;2023-12-22T08:54:09;5.90;99.90
17154;DHT22;8692;52.164;7.558;2023-12-22T08:56:37;6.00;99.90
17154;DHT22;8692;52.164;7.558;2023-12-22T08:59:05;5.90;99.90
17154;DHT22;8692;52.164;7.558;2023-12-22T09:01:35;6.00;99.90
17154;DHT22;8692;52.164;7.558;2023-12-22T09:04:04;6.00;99.90
17154;DHT22;8692;52.164;7.558;2023-12-22T09:06:35;6.00;99.90
17154;DHT22;8692;52.164;7.558;2023-12-22T09:09:03;6.00;99.90
17154;DHT22;8692;52.164;7.558;2023-12-22T09:11:32;6.00;99.90
17154;DHT22;8692;52.164;7.558;2023-12-22T09:14:00;6.10;99.90
17154;DHT22;8692;52.164;7.558;2023-12-22T09:16:28;6.10;99.90
17154;DHT22;8692;52.164;7.558;2023-12-22T09:18:56;6.10;99.90
17154;DHT22;8692;52.164;7.558;2023-12-22T09:21:24;6.10;99.90
17154;DHT22;8692;52.164;7.558;2023-12-22T09:23:53;6.20;99.90
17154;DHT22;8692;52.164;7.558;2023-12-22T09:26:21;6.20;99.90
17154;DHT22;8692;52.164;7.558;2023-12-22T09:28:52;6.20;99.90
17154;DHT22;8692;52.164;7.558;2023-12-22T09:31:20;6.20;99.90
17154;DHT22;8692;52.164;7.558;2023-12-22T09:33:49;6.30;99.90
17154;DHT22;8692;52.164;7.558;2023-12-22T09:36:17;6.30;99.90
17154;DHT22;8692;52.164;7.558;2023-12-22T09:38:45;6.30;99.90
17154;DHT22;8692;52.164;7.558;2023-12-22T09:41:13;6.30;99.90
17154;DHT22;8692;52.164;7.558;2023-12-22T09:43:42;6.40;99.90
17154;DHT22;8692;52.164;7.558;2023-12-22T09:46:13;6.40;99.90
17154;DHT22;8692;52.164;7.558;2023-12-22T09:48:41;6.40;99.90
17154;DHT22;8692;52.164;7.558;2023-12-22T09:51:11;6.40;99.90
17154;DHT22;8692;52.164;7.558;2023-12-22T09:53:40;6.40;99.90
17154;DHT22;8692;52.164;7.558;2023-12-22T09:56:09;6.40;99.90
17154;DHT22;8692;52.164;7.558;2023-12-22T09:58:38;6.40;99.90
17154;DHT22;8692;52.164;7.558;2023-12-22T10:01:07;6.40;99.90
17154;DHT22;8692;52.164;7.558;2023-12-22T10:03:38;6.40;99.90
17154;DHT22;8692;52.164;7.558;2023-12-22T10:06:11;6.40;99.90
17154;DHT22;8692;52.164;7.558;2023-12-22T10:08:40;6.40;99.90
17154;DHT22;8692;52.164;7.558;2023-12-22T10:11:09;6.40;99.90
17154;DHT22;8692;52.164;7.558;2023-12-22T10:13:38;6.40;99.90
17154;DHT22;8692;52.164;7.558;2023-12-22T10:16:08;6.40;99.90
17154;DHT22;8692;52.164;7.558;2023-12-22T10:18:37;6.40;99.90
17154;DHT22;8692;52.164;7.558;2023-12-22T10:21:05;6.40;99.90
17154;DHT22;8692;52.164;7.558;2023-12-22T10:23:33;6.30;99.90
17154;DHT22;8692;52.164;7.558;2023-12-22T10:26:01;6.40;99.90
17154;DHT22;8692;52.164;7.558;2023-12-22T10:28:30;6.30;99.90
17154;DHT22;8692;52.164;7.558;2023-12-22T10:30:58;6.30;99.90
17154;DHT22;8692;52.164;7.558;2023-12-22T10:33:30;6.30;99.90
17154;DHT22;8692;52.164;7.558;2023-12-22T10:36:00;6.30;99.90
17154;DHT22;8692;52.164;7.558;2023-12-22T10:38:32;6.30;99.90
17154;DHT22;8692;52.164;7.558;2023-12-22T10:41:01;6.30;99.90
17154;DHT22;8692;52.164;7.558;2023-12-22T10:43:30;6.30;99.90
17154;DHT22;8692;52.164;7.558;2023-12-22T10:45:58;6.30;99.90
17154;DHT22;8692;52.164;7.558;2023-12-22T10:48:26;6.20;99.90
17154;DHT22;8692;52.164;7.558;2023-12-22T10:50:54;6.20;99.90
17154;DHT22;8692;52.164;7.558;2023-12-22T10:53:23;6.20;99.90
17154;DHT22;8692;52.164;7.558;2023-12-22T10:55:52;6.20;99.90
17154;DHT22;8692;52.164;7.558;2023-12-22T10:58:21;6.30;99.90
17154;DHT22;8692;52.164;7.558;2023-12-22T11:00:50;6.30;99.90
17154;DHT22;8692;52.164;7.558;2023-12-22T11:03:23;6.30;99.90
17154;DHT22;8692;52.164;7.558;2023-12-22T11:05:54;6.30;99.90
17154;DHT22;8692;52.164;7.558;2023-12-22T11:08:28;6.30;99.90
17154;DHT22;8692;52.164;7.558;2023-12-22T11:10:58;6.30;99.90
17154;DHT22;8692;52.164;7.558;2023-12-22T11:13:31;6.30;99.90
17154;DHT22;8692;52.164;7.558;2023-12-22T11:16:00;6.30;99.90
17154;DHT22;8692;52.164;7.558;2023-12-22T11:18:29;6.30;99.90
17154;DHT22;8692;52.164;7.558;2023-12-22T11:20:58;6.30;99.90
17154;DHT22;8692;52.164;7.558;2023-12-22T11:23:30;6.30;99.90
17154;DHT22;8692;52.164;7.558;2023-12-22T11:26:01;6.30;99.90
17154;DHT22;8692;52.164;7.558;2023-12-22T11:28:31;6.40;99.90
17154;DHT22;8692;52.164;7.558;2023-12-22T11:31:01;6.30;99.90
17154;DHT22;8692;52.164;7.558;2023-12-22T11:33:29;6.40;99.90
17154;DHT22;8692;52.164;7.558;2023-12-22T11:35:59;6.40;99.90
17154;DHT22;8692;52.164;7.558;2023-12-22T11:38:29;6.40;99.90
17154;DHT22;8692;52.164;7.558;2023-12-22T11:40:58;6.40;99.90
17154;DHT22;8692;52.164;7.558;2023-12-22T11:43:28;6.40;99.90
17154;DHT22;8692;52.164;7.558;2023-12-22T11:46:01;6.40;99.90
17154;DHT22;8692;52.164;7.558;2023-12-22T11:48:29;6.40;99.90
17154;DHT22;8692;52.164;7.558;2023-12-22T11:50:57;6.40;99.90
17154;DHT22;8692;52.164;7.558;2023-12-22T11:53:29;6.50;99.90
17154;DHT22;8692;52.164;7.558;2023-12-22T11:56:03;6.40;99.90
17154;DHT22;8692;52.164;7.558;2023-12-22T11:58:40;6.40;99.90
17154;DHT22;8692;52.164;7.558;2023-12-22T12:01:10;6.50;99.90
17154;DHT22;8692;52.164;7.558;2023-12-22T12:03:42;6.50;99.90
17154;DHT22;8692;52.164;7.558;2023-12-22T12:06:14;6.50;99.90
17154;DHT22;8692;52.164;7.558;2023-12-22T12:08:42;6.50;99.90
17154;DHT22;8692;52.164;7.558;2023-12-22T12:11:11;6.50;99.90
17154;DHT22;8692;52.164;7.558;2023-12-22T12:13:43;6.50;99.90
17154;DHT22;8692;52.164;7.558;2023-12-22T12:16:12;6.60;99.90
17154;DHT22;8692;52.164;7.558;2023-12-22T12:18:41;6.60;99.90
17154;DHT22;8692;52.164;7.558;2023-12-22T12:21:10;6.60;99.90
17154;DHT22;8692;52.164;7.558;2023-12-22T12:23:38;6.60;99.90
17154;DHT22;8692;52.164;7.558;2023-12-22T12:26:08;6.50;99.90
17154;DHT22;8692;52.164;7.558;2023-12-22T12:28:38;6.50;99.90
17154;DHT22;8692;52.164;7.558;2023-12-22T12:31:07;6.60;99.90
17154;DHT22;8692;52.164;7.558;2023-12-22T12:33:36;6.60;99.90
17154;DHT22;8692;52.164;7.558;2023-12-22T12:36:05;6.50;99.90
17154;DHT22;8692;52.164;7.558;2023-12-22T12:38:40;6.60;99.90
17154;DHT22;8692;52.164;7.558;2023-12-22T12:41:10;6.60;99.90
17154;DHT22;8692;52.164;7.558;2023-12-22T12:43:42;6.60;99.90
17154;DHT22;8692;52.164;7.558;2023-12-22T12:46:11;6.60;99.90
17154;DHT22;8692;52.164;7.558;2023-12-22T12:48:39;6.50;99.90
17154;DHT22;8692;52.164;7.558;2023-12-22T12:51:08;6.50;99.90
17154;DHT22;8692;52.164;7.558;2023-12-22T12:53:36;6.50;99.90
17154;DHT22;8692;52.164;7.558;2023-12-22T12:56:05;6.60;99.90
17154;DHT22;8692;52.164;7.558;2023-12-22T12:58:33;6.60;99.90
17154;DHT22;8692;52.164;7.558;2023-12-22T13:01:08;6.60;99.90
17154;DHT22;8692;52.164;7.558;2023-12-22T13:03:51;6.50;99.90
17154;DHT22;8692;52.164;7.558;2023-12-22T13:06:20;6.60;99.90
17154;DHT22;8692;52.164;7.558;2023-12-22T13:08:49;6.50;99.90
17154;DHT22;8692;52.164;7.558;2023-12-22T13:11:20;6.60;99.90
17154;DHT22;8692;52.164;7.558;2023-12-22T13:13:49;6.60;99.90
17154;DHT22;8692;52.164;7.558;2023-12-22T13:16:20;6.50;99.90
17154;DHT22;8692;52.164;7.558;2023-12-22T13:18:49;6.50;99.90
17154;DHT22;8692;52.164;7.558;2023-12-22T13:21:17;6.50;99.90
17154;DHT22;8692;52.164;7.558;2023-12-22T13:23:45;6.50;99.90
17154;DHT22;8692;52.164;7.558;2023-12-22T13:26:20;6.50;99.90
17154;DHT22;8692;52.164;7.558;2023-12-22T13:28:48;6.50;99.90
17154;DHT22;8692;52.164;7.558;2023-12-22T13:31:16;6.50;99.90
17154;DHT22;8692;52.164;7.558;2023-12-22T13:33:48;6.50;99.90
17154;DHT22;8692;52.164;7.558;2023-12-22T13:36:16;6.50;99.90
17154;DHT22;8692;52.164;7.558;2023-12-22T13:38:46;6.50;99.90
17154;DHT22;8692;52.164;7.558;2023-12-22T13:41:15;6.50;99.90
17154;DHT22;8692;52.164;7.558;2023-12-22T13:43:43;6.50;99.90
17154;DHT22;8692;52.164;7.558;2023-12-22T13:46:12;6.50;99.90
17154;DHT22;8692;52.164;7.558;2023-12-22T13:48:41;6.50;99.90
17154;DHT22;8692;52.164;7.558;2023-12-22T13:51:13;6.50;99.90
17154;DHT22;8692;52.164;7.558;2023-12-22T13:53:47;6.50;99.90
17154;DHT22;8692;52.164;7.558;2023-12-22T13:56:16;6.50;99.90
17154;DHT22;8692;52.164;7.558;2023-12-22T13:58:45;6.50;99.90
17154;DHT22;8692;52.164;7.558;2023-12-22T14:01:14;6.50;99.90
17154;DHT22;8692;52.164;7.558;2023-12-22T14:03:43;6.50;99.90
17154;DHT22;8692;52.164;7.558;2023-12-22T14:06:13;6.50;99.90
17154;DHT22;8692;52.164;7.558;2023-12-22T14:08:41;6.50;99.90
17154;DHT22;8692;52.164;7.558;2023-12-22T14:11:09;6.60;99.90
17154;DHT22;8692;52.164;7.558;2023-12-22T14:13:38;6.50;99.90
17154;DHT22;8692;52.164;7.558;2023-12-22T14:16:07;6.50;99.90
17154;DHT22;8692;52.164;7.558;2023-12-22T14:18:35;6.60;99.90
17154;DHT22;8692;52.164;7.558;2023-12-22T14:21:04;6.50;99.90
17154;DHT22;8692;52.164;7.558;2023-12-22T14:23:33;6.60;99.90
17154;DHT22;8692;52.164;7.558;2023-12-22T14:26:01;6.60;99.90
17154;DHT22;8692;52.164;7.558;2023-12-22T14:28:30;6.60;99.90
17154;DHT22;8692;52.164;7.558;2023-12-22T14:30:58;6.60;99.90
17154;DHT22;8692;52.164;7.558;2023-12-22T14:33:26;6.60;99.90
17154;DHT22;8692;52.164;7.558;2023-12-22T14:35:54;6.60;99.90
17154;DHT22;8692;52.164;7.558;2023-12-22T14:38:21;6.60;99.90
17154;DHT22;8692;52.164;7.558;2023-12-22T14:40:50;6.60;99.90
17154;DHT22;8692;52.164;7.558;2023-12-22T14:43:18;6.60;99.90
17154;DHT22;8692;52.164;7.558;2023-12-22T14:45:46;6.60;99.90
17154;DHT22;8692;52.164;7.558;2023-12-22T14:48:14;6.60;99.90
17154;DHT22;8692;52.164;7.558;2023-12-22T14:50:42;6.70;99.90
17154;DHT22;8692;52.164;7.558;2023-12-22T14:53:10;6.70;99.90
17154;DHT22;8692;52.164;7.558;2023-12-22T14:55:39;6.70;99.90
17154;DHT22;8692;52.164;7.558;2023-12-22T14:58:09;6.70;99.90
17154;DHT22;8692;52.164;7.558;2023-12-22T15:00:37;6.70;99.90
17154;DHT22;8692;52.164;7.558;2023-12-22T15:03:05;6.70;99.90
17154;DHT22;8692;52.164;7.558;2023-12-22T15:05:35;6.70;99.90
17154;DHT22;8692;52.164;7.558;2023-12-22T15:08:04;6.70;99.90
17154;DHT22;8692;52.164;7.558;2023-12-22T15:10:34;6.80;99.90
17154;DHT22;8692;52.164;7.558;2023-12-22T15:13:02;6.80;99.90
17154;DHT22;8692;52.164;7.558;2023-12-22T15:15:31;6.80;99.90
17154;DHT22;8692;52.164;7.558;2023-12-22T15:17:59;6.80;99.90
17154;DHT22;8692;52.164;7.558;2023-12-22T15:20:27;6.80;99.90
17154;DHT22;8692;52.164;7.558;2023-12-22T15:22:55;6.80;99.90
17154;DHT22;8692;52.164;7.558;2023-12-22T15:25:23;6.80;99.90
17154;DHT22;8692;52.164;7.558;2023-12-22T15:27:54;6.80;99.90
17154;DHT22;8692;52.164;7.558;2023-12-22T15:30:22;6.80;99.90
17154;DHT22;8692;52.164;7.558;2023-12-22T15:32:53;6.80;99.90
17154;DHT22;8692;52.164;7.558;2023-12-22T15:35:21;6.80;99.90
17154;DHT22;8692;52.164;7.558;2023-12-22T15:37:49;6.80;99.90
17154;DHT22;8692;52.164;7.558;2023-12-22T15:40:18;6.80;99.90
17154;DHT22;8692;52.164;7.558;2023-12-22T15:42:46;6.80;99.90
17154;DHT22;8692;52.164;7.558;2023-12-22T15:45:15;6.80;99.90
17154;DHT22;8692;52.164;7.558;2023-12-22T15:47:43;6.80;99.90
17154;DHT22;8692;52.164;7.558;2023-12-22T15:50:12;6.80;99.90
17154;DHT22;8692;52.164;7.558;2023-12-22T15:52:41;6.80;99.90
17154;DHT22;8692;52.164;7.558;2023-12-22T15:55:09;6.80;99.90
17154;DHT22;8692;52.164;7.558;2023-12-22T15:57:39;6.80;99.90
17154;DHT22;8692;52.164;7.558;2023-12-22T16:00:08;6.80;99.90
17154;DHT22;8692;52.164;7.558;2023-12-22T16:02:36;6.80;99.90
17154;DHT22;8692;52.164;7.558;2023-12-22T16:05:06;6.70;99.90
17154;DHT22;8692;52.164;7.558;2023-12-22T16:07:37;6.70;99.90
17154;DHT22;8692;52.164;7.558;2023-12-22T16:10:07;6.70;99.90
17154;DHT22;8692;52.164;7.558;2023-12-22T16:12:36;6.70;99.90